• Join FlightAware (Why Join?)
  • Login
  • US Flag 
05:44AM EDT


 

Airport Tracker/Info


-or-


 

Live Flight TrackerFlight Track Log ✈ EGF4247 ✈ 07-Jun-2013 ✈ KBUF - KORD

Flight Track Log - Related Links

Times and Time Zones

All times are in EDT time to prevent confusion due to time zone crossing. See the EGF4247 flight status page for this flight to view local times or setup timezone preferences in your user account.

Time Position Orientation Groundspeed Altitude Reporting Facility
EDT Latitude Longitude Course Direction KTS MPH feet Rate Location/Type
04:08PM 42.9500 -78.7167 270° West 164 189 1,300  Level Buffalo TRACON
04:08PM 42.9833 -78.6833 36° Northeast 167 192 2,700 1,920 Climbing Buffalo TRACON
04:09PM 43.0333 -78.6833 360° North 227 261 4,600 2,040 Climbing Buffalo TRACON
04:10PM 42.9500 -79.0646 270° West  Level FlightAware Approximate
04:10PM 43.0667 -78.7500 304° West 247 284 6,800  Level Buffalo TRACON
04:11PM 42.9595 -79.1806 277° West  Level FlightAware Approximate
04:11PM 43.0500 -78.8500 257° West 276 318 8,500  Level Buffalo TRACON
04:12PM 42.9667 -79.2969 270° West  Level FlightAware Approximate
04:12PM 43.0500 -78.9500 270° West 282 325 10,700  Level Buffalo TRACON
04:13PM 42.9667 -79.4138 270° West  Level FlightAware Approximate
04:13PM 43.0500 -79.0333 270° West 300 345 12,100  Level Toronto Center
04:14PM 43.0500 -79.1833 270° West 320 368 13,800 1,260 Climbing Toronto Center
04:15PM 43.0500 -79.2833 270° West 330 380 14,700 900 Climbing Toronto Center
04:16PM 43.0500 -79.4333 270° West 350 403 15,700 1,080 Climbing Toronto Center
04:17PM 43.0500 -79.5667 270° West 360 414 16,900 1,380 Climbing Toronto Center
04:18PM 43.0500 -79.7000 270° West 360 414 18,500 1,500 Climbing Toronto Center
04:19PM 43.0500 -79.8333 270° West 350 403 20,000 1,200 Climbing Toronto Center
04:20PM 43.0500 -79.9833 270° West 350 403 20,900 900 Climbing Toronto Center
04:21PM 43.0500 -80.0833 270° West 360 414 21,900 960 Climbing Toronto Center
04:22PM 43.0500 -80.2500 270° West 370 426 22,900 720 Climbing Toronto Center
04:23PM 43.0500 -80.3833 270° West 380 437 23,400 900 Climbing Toronto Center
04:24PM 43.0333 -80.5500 262° West 380 437 24,700 1,200 Climbing Toronto Center
04:25PM 43.0333 -80.6667 270° West 370 426 25,900 1,140 Climbing Toronto Center
04:26PM 43.0167 -80.8167 261° West 360 414 27,000 960 Climbing Toronto Center
04:27PM 43.0167 -80.9500 270° West 360 414 27,900 900 Climbing Toronto Center
04:28PM 43.0167 -81.1000 270° West 360 414 28,900 960 Climbing Toronto Center
04:29PM 43.0167 -81.2000 270° West 360 414 29,900 540 Climbing Toronto Center
04:30PM 43.0167 -81.3500 270° West 360 414 30,000  Climbing Toronto Center
04:31PM 43.0167 -81.5000 270° West 380 437 30,000  Level Toronto Center
04:32PM 43.0167 -81.6667 270° West 390 449 30,000  Level Toronto Center
04:33PM 43.0167 -81.8000 270° West 390 449 30,000  Level Toronto Center
04:34PM 43.0000 -81.9667 262° West 400 460 30,000  Level Toronto Center
04:35PM 43.0000 -82.1000 270° West 400 460 30,000  Level Toronto Center
04:36PM 43.0000 -82.2500 270° West 400 460 30,000  Level Toronto Center
04:37PM 43.0000 -82.4167 270° West 400 460 30,000  Level Toronto Center
04:38PM 43.0000 -82.5500 270° West 400 460 30,000  Level Toronto Center
04:39PM 43.0019 -82.6753 271° West 402 463 30,000  Level Cleveland Center
04:40PM 42.9969 -82.8286 267° West 402 463 30,000  Level Cleveland Center
04:41PM 42.9919 -82.9761 267° West 402 463 30,000  Level Cleveland Center
04:42PM 42.9886 -83.1264 268° West 402 463 30,000  Level Cleveland Center
04:43PM 42.9831 -83.2794 267° West 402 463 30,000  Level Cleveland Center
04:44PM 42.9775 -83.4294 267° West 402 463 30,000  Level Cleveland Center
04:45PM 42.9736 -83.5797 268° West 402 463 30,000  Level Cleveland Center
04:46PM 42.9650 -83.7469 266° West 402 463 30,000  Level Cleveland Center
04:47PM 42.9525 -83.8964 264° West 407 468 30,000  Level Cleveland Center
04:48PM 42.9375 -84.0461 262° West 402 463 30,000  Level Cleveland Center
04:49PM 42.9228 -84.1928 262° West 402 463 30,000  Level Cleveland Center
04:50PM 42.9197 -84.2331 264° West 396 456 30,000  Level Chicago Center
04:51PM 42.9056 -84.3808 263° West 395 455 30,000  Level Chicago Center
04:52PM 42.8903 -84.5300 262° West 398 458 30,000  Level Chicago Center
04:53PM 42.8747 -84.6775 262° West 395 455 30,000  Level Chicago Center
04:54PM 42.8561 -84.8575 262° West 400 460 30,000  Level Chicago Center
04:55PM 42.8403 -85.0069 262° West 400 460 30,000  Level Chicago Center
04:56PM 42.8239 -85.1583 262° West 404 465 30,000  Level Chicago Center
04:57PM 42.8089 -85.3092 262° West 403 464 30,000  Level Chicago Center
04:58PM 42.7911 -85.4600 261° West 403 464 30,000 -960 Level Chicago Center
04:59PM 42.7675 -85.6106 258° West 406 467 28,100 -1,980 Descending Chicago Center
05:00PM 42.7394 -85.7617 256° West 408 470 26,000 -2,280 Descending Chicago Center
05:01PM 42.7061 -85.9431 256° West 409 471 23,400 -2,280 Descending Chicago Center
05:02PM 42.6786 -86.0936 256° West 409 471 21,300 -1,680 Descending Chicago Center
05:03PM 42.6528 -86.2369 256° West 394 453 20,000 -660 Descending Chicago Center
05:04PM 42.6253 -86.3783 255° West 388 447 20,000  Level Chicago Center
05:05PM 42.5989 -86.5261 256° West 400 460 20,000 -600 Level Chicago Center
05:06PM 42.5703 -86.6725 255° West 400 460 18,800 -1,740 Descending Chicago Center
05:07PM 42.5386 -86.8164 253° West 401 461 16,500 -2,340 Descending Chicago Center
05:08PM 42.4936 -86.9769 249° West 382 440 14,000 -2,280 Descending Chicago Center
05:09PM 42.4558 -87.1094 249° West 378 435 11,900 -1,920 Descending Chicago Center
05:10PM 42.4200 -87.2414 250° West 375 432 10,100 -960 Descending Chicago Center
05:11PM 42.3861 -87.3625 249° West 350 403 10,000 -60 Descending Chicago Center
05:12PM 42.3525 -87.4856 250° West 307 353 10,000  Level Chicago Center
05:13PM 42.3064 -87.5714 234° Southwest 299 344 10,000 -240 Level Chicago Center
05:14PM 42.2431 -87.6372 218° Southwest 290 334 9,600 -540 Descending Chicago Center
05:15PM 42.1806 -87.7008 217° Southwest 284 327 9,000 -720 Descending Chicago Center
05:17PM 42.1194 -87.7650 218° Southwest 281 323 8,100 -660 Descending Chicago Center
05:18PM 42.0875 -87.8736 248° West 273 314 7,700 -540 Descending Chicago Center
05:18PM 42.0833 -87.9000 258° West 275 316 7,400 -540 Descending Chicago TRACON
05:19PM 42.0667 -88.0167 259° West 278 320 7,000 -480 Descending Chicago TRACON
05:20PM 42.0500 -88.1167 257° West 271 312 6,400 -600 Descending Chicago TRACON
05:21PM 42.0500 -88.1742 270° West 276 318 6,000 -420 Descending Chicago Center
05:22PM 42.0364 -88.2925 261° West 273 314 5,700 -480 Descending Chicago Center
05:23PM 41.9872 -88.3383 215° Southwest 248 285 5,100 -360 Descending Chicago Center
05:24PM 41.9675 -88.2856 117° Southeast 206 237 5,000 -60 Descending Chicago Center
05:25PM 41.9669 -88.2222 91° East 175 201 5,000 -420 Level Chicago Center
05:26PM 41.9678 -88.1511 89° East 184 212 4,200 -780 Descending Chicago Center